createdAt,value
2019-04-27T00:00:53.512Z,14.10
2019-04-27T00:03:36.488Z,14.00
2019-04-27T00:06:08.805Z,14.00
2019-04-27T00:08:58.029Z,14.00
2019-04-27T00:11:37.470Z,13.90
2019-04-27T00:14:10.381Z,13.90
2019-04-27T00:17:03.893Z,13.70
2019-04-27T00:19:53.726Z,13.70
2019-04-27T00:22:30.569Z,13.70
2019-04-27T00:25:00.710Z,13.70
2019-04-27T00:27:30.843Z,13.70
2019-04-27T00:30:01.161Z,13.60
2019-04-27T00:32:33.230Z,13.50
2019-04-27T00:35:03.854Z,13.60
2019-04-27T00:37:52.950Z,13.60
2019-04-27T00:40:29.097Z,13.60
2019-04-27T00:42:59.237Z,13.60
2019-04-27T00:45:29.522Z,13.60
2019-04-27T00:48:00.029Z,13.50
2019-04-27T00:50:31.521Z,13.60
2019-04-27T00:53:03.391Z,13.40
2019-04-27T00:55:35.390Z,13.40
2019-04-27T00:58:24.650Z,13.30
2019-04-27T01:01:05.162Z,13.30
2019-04-27T01:03:43.110Z,13.30
2019-04-27T01:06:14.767Z,13.30
2019-04-27T01:08:45.158Z,13.30
2019-04-27T01:11:15.357Z,13.30
2019-04-27T01:13:45.485Z,13.10
2019-04-27T01:16:21.543Z,12.90
2019-04-27T01:18:48.895Z,12.90
2019-04-27T01:21:19.458Z,12.80
2019-04-27T01:23:49.775Z,12.90
2019-04-27T01:26:45.286Z,12.90
2019-04-27T01:29:19.208Z,13.00
2019-04-27T01:31:49.641Z,12.90
2019-04-27T01:34:19.903Z,13.00
2019-04-27T01:36:50.067Z,13.00
2019-04-27T01:39:20.705Z,13.00
2019-04-27T01:41:50.918Z,13.00
2019-04-27T01:44:21.069Z,13.00
2019-04-27T01:46:51.194Z,13.10
2019-04-27T01:49:21.421Z,13.10
2019-04-27T01:51:51.705Z,13.00
2019-04-27T01:54:23.528Z,12.90
2019-04-27T01:56:53.644Z,12.80
2019-04-27T01:59:23.900Z,12.80
2019-04-27T02:02:22.118Z,12.80
2019-04-27T02:05:14.042Z,12.80
2019-04-27T02:07:44.809Z,12.70
2019-04-27T02:10:16.507Z,12.60
2019-04-27T02:12:48.612Z,12.60
2019-04-27T02:15:19.127Z,12.50
2019-04-27T02:17:51.065Z,12.50
2019-04-27T02:20:21.569Z,12.60
2019-04-27T02:22:51.835Z,12.70
2019-04-27T02:25:21.971Z,12.70
2019-04-27T02:27:57.274Z,12.70
2019-04-27T02:30:46.668Z,12.70
2019-04-27T02:33:35.810Z,12.70
2019-04-27T02:36:06.053Z,12.70
2019-04-27T02:38:36.202Z,12.60
2019-04-27T02:41:10.026Z,12.50
2019-04-27T02:44:03.473Z,12.60
2019-04-27T02:46:33.679Z,12.60
2019-04-27T02:49:06.946Z,12.60
2019-04-27T02:51:55.798Z,12.50
2019-04-27T02:54:26.025Z,12.50
2019-04-27T02:56:56.164Z,12.50
2019-04-27T02:59:26.321Z,12.60
2019-04-27T03:02:04.840Z,12.70
2019-04-27T03:04:34.975Z,12.60
2019-04-27T03:07:06.256Z,12.50
2019-04-27T03:09:36.525Z,12.50
2019-04-27T03:12:06.738Z,12.50
2019-04-27T03:14:52.997Z,12.50
2019-04-27T03:17:33.953Z,12.50
2019-04-27T03:20:10.587Z,12.50
2019-04-27T03:22:54.277Z,12.60
2019-04-27T03:25:52.348Z,12.60
2019-04-27T03:28:22.636Z,12.50
2019-04-27T03:30:53.752Z,12.50
2019-04-27T03:33:24.139Z,12.60
2019-04-27T03:35:54.368Z,12.60
2019-04-27T03:38:24.742Z,12.60
2019-04-27T03:40:55.021Z,12.60
2019-04-27T03:43:25.382Z,12.70
2019-04-27T03:45:55.590Z,12.70
2019-04-27T03:48:25.787Z,12.80
2019-04-27T03:51:24.274Z,12.90
2019-04-27T03:54:07.813Z,12.90
2019-04-27T03:56:46.607Z,13.10
2019-04-27T03:59:40.569Z,13.10
2019-04-27T04:02:11.046Z,13.30
2019-04-27T04:04:41.266Z,13.50
2019-04-27T04:07:16.371Z,13.60
2019-04-27T04:09:46.594Z,13.70
2019-04-27T04:12:35.769Z,13.80
2019-04-27T04:15:10.124Z,14.10
2019-04-27T04:17:40.522Z,14.10
2019-04-27T04:20:10.894Z,14.20
2019-04-27T04:22:41.097Z,14.30
2019-04-27T04:25:11.493Z,14.50
2019-04-27T04:27:42.879Z,14.70
2019-04-27T04:30:13.689Z,14.90
2019-04-27T04:32:44.823Z,15.20
2019-04-27T04:35:21.831Z,15.50
2019-04-27T04:38:02.826Z,15.70
2019-04-27T04:40:40.097Z,15.90
2019-04-27T04:43:16.143Z,16.10
2019-04-27T04:45:59.578Z,16.20
2019-04-27T04:48:30.202Z,16.30
2019-04-27T04:51:00.656Z,16.40
2019-04-27T04:53:30.806Z,16.40
2019-04-27T04:56:00.942Z,16.50
2019-04-27T04:58:31.455Z,16.50
2019-04-27T05:01:02.057Z,16.60
2019-04-27T05:03:32.189Z,16.50
2019-04-27T05:06:02.399Z,16.60
2019-04-27T05:08:32.482Z,16.60
2019-04-27T05:11:02.651Z,16.60
2019-04-27T05:13:32.877Z,16.60
2019-04-27T05:16:04.278Z,16.70
2019-04-27T05:18:34.454Z,16.70
2019-04-27T05:21:10.591Z,16.70
2019-04-27T05:23:40.706Z,16.70
2019-04-27T05:26:10.891Z,16.70
2019-04-27T05:28:41.094Z,16.70
2019-04-27T05:31:11.244Z,16.80
2019-04-27T05:33:42.314Z,16.80
2019-04-27T05:36:12.526Z,16.80
2019-04-27T05:38:45.896Z,16.80
2019-04-27T05:41:14.448Z,16.80
2019-04-27T05:44:07.680Z,16.80
2019-04-27T05:47:11.667Z,16.80
2019-04-27T05:49:44.362Z,16.90
2019-04-27T05:52:30.914Z,17.00
2019-04-27T05:55:01.016Z,17.00
2019-04-27T05:57:31.688Z,17.00
2019-04-27T06:00:02.778Z,17.00
2019-04-27T06:02:33.830Z,16.90
2019-04-27T06:05:04.585Z,16.90
2019-04-27T06:07:34.866Z,17.00
2019-04-27T06:10:05.849Z,17.10
2019-04-27T06:12:36.023Z,17.20
2019-04-27T06:15:07.322Z,17.30
2019-04-27T06:17:38.708Z,17.50
2019-04-27T06:20:09.248Z,17.70
2019-04-27T06:22:39.382Z,18.00
2019-04-27T06:25:11.814Z,18.00
2019-04-27T06:27:41.374Z,18.10
2019-04-27T06:30:11.660Z,18.10
2019-04-27T06:32:44.602Z,18.10
2019-04-27T06:35:18.808Z,18.30
2019-04-27T06:37:49.389Z,18.30
2019-04-27T06:40:19.625Z,18.50
2019-04-27T06:42:49.814Z,18.70
2019-04-27T06:45:20.095Z,18.90
2019-04-27T06:47:51.310Z,18.70
2019-04-27T06:50:21.662Z,18.40
2019-04-27T06:52:51.905Z,18.30
2019-04-27T06:55:22.192Z,18.20
2019-04-27T06:57:52.405Z,18.20
2019-04-27T07:00:22.573Z,18.20
2019-04-27T07:02:55.202Z,18.50
2019-04-27T07:05:24.804Z,18.60
2019-04-27T07:07:54.941Z,18.70
2019-04-27T07:10:25.178Z,18.70
2019-04-27T07:12:55.473Z,18.90
2019-04-27T07:15:25.695Z,19.20
2019-04-27T07:17:55.897Z,19.10
2019-04-27T07:20:26.106Z,18.90
2019-04-27T07:22:56.363Z,18.80
2019-04-27T07:25:26.466Z,19.10
2019-04-27T07:27:56.633Z,18.80
2019-04-27T07:30:28.724Z,18.50
2019-04-27T07:33:00.365Z,18.20
2019-04-27T07:35:30.646Z,18.30
2019-04-27T07:38:00.872Z,18.30
2019-04-27T07:40:31.192Z,18.30
2019-04-27T07:43:09.099Z,18.20
2019-04-27T07:45:39.669Z,18.00
2019-04-27T07:48:09.877Z,17.80
2019-04-27T07:50:39.993Z,17.70
2019-04-27T07:53:10.192Z,17.60
2019-04-27T07:55:40.398Z,17.50
2019-04-27T07:58:10.604Z,17.30
2019-04-27T08:00:44.016Z,17.40
2019-04-27T08:03:14.250Z,17.60
2019-04-27T08:05:44.485Z,17.50
2019-04-27T08:08:14.610Z,17.40
2019-04-27T08:10:47.601Z,17.40
2019-04-27T08:13:16.715Z,17.30
2019-04-27T08:15:47.077Z,17.20
2019-04-27T08:18:18.966Z,17.10
2019-04-27T08:20:49.313Z,17.10
2019-04-27T08:23:19.622Z,17.10
2019-04-27T08:25:49.946Z,17.20
2019-04-27T08:28:39.098Z,17.30
2019-04-27T08:31:28.686Z,17.50
2019-04-27T08:34:00.125Z,17.70
2019-04-27T08:36:30.398Z,18.00
2019-04-27T08:39:00.658Z,18.30
2019-04-27T08:41:32.497Z,18.50
2019-04-27T08:44:02.642Z,18.70
2019-04-27T08:46:32.714Z,18.80
2019-04-27T08:49:03.953Z,18.70
2019-04-27T08:51:34.096Z,18.40
2019-04-27T08:54:04.347Z,18.40
2019-04-27T08:56:34.429Z,18.20
2019-04-27T08:59:04.705Z,18.00
2019-04-27T09:01:34.958Z,17.80
2019-04-27T09:04:05.290Z,17.80
2019-04-27T09:06:38.155Z,17.60
2019-04-27T09:09:19.550Z,17.50
2019-04-27T09:12:20.598Z,17.40
2019-04-27T09:14:59.229Z,17.20
2019-04-27T09:17:36.066Z,17.20
2019-04-27T09:20:21.541Z,17.20
2019-04-27T09:22:51.774Z,17.20
2019-04-27T09:25:21.855Z,17.20
2019-04-27T09:27:52.017Z,17.30
2019-04-27T09:30:22.370Z,17.50
2019-04-27T09:32:52.462Z,17.50
2019-04-27T09:35:22.665Z,17.40
2019-04-27T09:37:52.791Z,17.50
2019-04-27T09:40:23.042Z,17.60
2019-04-27T09:42:53.118Z,17.70
2019-04-27T09:45:23.358Z,17.70
2019-04-27T09:47:53.482Z,17.50
2019-04-27T09:50:23.869Z,17.40
2019-04-27T09:52:55.582Z,17.50
2019-04-27T09:55:26.433Z,17.40
2019-04-27T09:57:57.801Z,17.50
2019-04-27T10:00:28.347Z,17.50
2019-04-27T10:02:58.855Z,17.50
2019-04-27T10:05:28.943Z,17.40
2019-04-27T10:07:59.301Z,17.40
2019-04-27T10:10:29.567Z,17.50
2019-04-27T10:12:59.913Z,17.50
2019-04-27T10:15:30.027Z,17.40
2019-04-27T10:18:00.295Z,17.50
2019-04-27T10:20:30.453Z,17.50
2019-04-27T10:23:00.519Z,17.40
2019-04-27T10:25:30.825Z,17.50
2019-04-27T10:28:00.997Z,17.70
2019-04-27T10:30:31.733Z,17.50
2019-04-27T10:33:02.190Z,17.60
2019-04-27T10:35:32.513Z,17.60
2019-04-27T10:38:02.589Z,17.70
2019-04-27T10:40:32.658Z,17.60
2019-04-27T10:43:02.847Z,17.50
2019-04-27T10:45:33.545Z,17.50
2019-04-27T10:48:03.733Z,17.40
2019-04-27T10:50:33.878Z,17.40
2019-04-27T10:53:04.063Z,17.40
2019-04-27T10:55:34.181Z,17.50
2019-04-27T10:58:04.814Z,17.50
2019-04-27T11:00:42.908Z,17.50
2019-04-27T11:03:16.615Z,17.40
2019-04-27T11:06:09.878Z,17.30
2019-04-27T11:08:48.368Z,17.30
2019-04-27T11:11:18.747Z,17.30
2019-04-27T11:13:48.969Z,17.30
2019-04-27T11:16:20.218Z,17.40
2019-04-27T11:18:50.385Z,17.50
2019-04-27T11:21:20.438Z,17.40
2019-04-27T11:23:50.685Z,17.20
2019-04-27T11:26:20.885Z,17.10
2019-04-27T11:28:51.029Z,17.10
2019-04-27T11:31:21.337Z,17.10
2019-04-27T11:33:52.894Z,17.20
2019-04-27T11:36:47.381Z,17.20
2019-04-27T11:39:19.655Z,17.10
2019-04-27T11:41:49.493Z,17.30
2019-04-27T11:44:19.658Z,17.40
2019-04-27T11:46:49.934Z,17.40
2019-04-27T11:49:21.113Z,17.30
2019-04-27T11:51:51.856Z,17.10
2019-04-27T11:54:22.119Z,17.00
2019-04-27T11:56:52.295Z,17.00
2019-04-27T11:59:22.434Z,17.00
2019-04-27T12:01:52.678Z,16.90
2019-04-27T12:04:22.953Z,17.00
2019-04-27T12:06:53.050Z,17.00
2019-04-27T12:09:23.386Z,16.90
2019-04-27T12:11:53.526Z,17.00
2019-04-27T12:14:23.561Z,17.00
2019-04-27T12:16:53.674Z,17.00
2019-04-27T12:19:26.679Z,16.80
2019-04-27T12:21:57.319Z,16.80
2019-04-27T12:24:27.630Z,16.70
2019-04-27T12:27:16.026Z,16.70
2019-04-27T12:30:17.442Z,16.60
2019-04-27T12:32:47.781Z,16.60
2019-04-27T12:35:17.946Z,16.60
2019-04-27T12:37:48.138Z,16.60
2019-04-27T12:40:18.183Z,16.50
2019-04-27T12:42:51.276Z,16.60
2019-04-27T12:45:21.621Z,16.50
2019-04-27T12:47:51.775Z,16.50
2019-04-27T12:50:22.586Z,16.50
2019-04-27T12:52:56.508Z,16.50
2019-04-27T12:55:46.379Z,16.50
2019-04-27T12:58:34.343Z,16.50
2019-04-27T13:01:07.302Z,16.50
2019-04-27T13:03:36.917Z,16.50
2019-04-27T13:06:07.280Z,16.40
2019-04-27T13:08:37.477Z,16.40
2019-04-27T13:11:07.526Z,16.50
2019-04-27T13:13:37.674Z,16.40
2019-04-27T13:16:07.947Z,16.40
2019-04-27T13:18:38.188Z,16.30
2019-04-27T13:21:08.278Z,16.20
2019-04-27T13:23:38.496Z,16.20
2019-04-27T13:26:08.746Z,16.20
2019-04-27T13:28:38.973Z,16.10
2019-04-27T13:31:09.429Z,16.10
2019-04-27T13:33:39.730Z,16.10
2019-04-27T13:36:09.892Z,16.10
2019-04-27T13:38:40.302Z,16.00
2019-04-27T13:41:12.131Z,16.00
2019-04-27T13:43:42.258Z,15.90
2019-04-27T13:46:20.058Z,15.90
2019-04-27T13:49:21.618Z,15.70
2019-04-27T13:52:13.886Z,15.50
2019-04-27T13:54:45.749Z,15.40
2019-04-27T13:57:16.398Z,15.20
2019-04-27T13:59:47.830Z,15.20
2019-04-27T14:02:19.225Z,15.10
2019-04-27T14:04:49.885Z,15.00
2019-04-27T14:07:20.070Z,15.00
2019-04-27T14:09:50.571Z,15.00
2019-04-27T14:12:22.252Z,14.80
2019-04-27T14:14:52.715Z,14.70
2019-04-27T14:17:23.111Z,14.70
2019-04-27T14:19:53.158Z,14.70
2019-04-27T14:22:23.334Z,14.70
2019-04-27T14:24:53.471Z,14.60
2019-04-27T14:27:26.173Z,14.60
2019-04-27T14:29:57.656Z,14.50
2019-04-27T14:32:28.730Z,14.50
2019-04-27T14:34:59.268Z,14.50
2019-04-27T14:37:31.658Z,14.50
2019-04-27T14:40:01.841Z,14.70
2019-04-27T14:42:34.573Z,14.70
2019-04-27T14:45:08.852Z,14.60
2019-04-27T14:47:39.937Z,14.60
2019-04-27T14:50:11.002Z,14.60
2019-04-27T14:52:41.829Z,14.50
2019-04-27T14:55:12.685Z,14.60
2019-04-27T14:57:42.852Z,14.60
2019-04-27T15:00:15.205Z,14.60
2019-04-27T15:02:45.561Z,14.60
2019-04-27T15:05:15.702Z,14.70
2019-04-27T15:07:46.931Z,14.70
2019-04-27T15:10:17.327Z,14.60
2019-04-27T15:12:47.741Z,14.60
2019-04-27T15:15:18.167Z,14.60
2019-04-27T15:17:49.449Z,14.70
2019-04-27T15:20:27.197Z,14.70
2019-04-27T15:23:00.097Z,14.70
2019-04-27T15:25:34.985Z,14.70
2019-04-27T15:28:07.350Z,14.70
2019-04-27T15:31:04.568Z,14.70
2019-04-27T15:33:54.701Z,14.70
2019-04-27T15:36:52.860Z,14.60
2019-04-27T15:39:39.513Z,14.50
2019-04-27T15:42:11.748Z,14.50
2019-04-27T15:44:44.122Z,14.50
2019-04-27T15:47:13.987Z,14.50
2019-04-27T15:49:49.843Z,14.50
2019-04-27T15:52:17.850Z,14.50
2019-04-27T15:54:48.363Z,14.40
2019-04-27T15:57:20.383Z,14.40
2019-04-27T15:59:50.324Z,14.40
2019-04-27T16:02:20.462Z,14.30
2019-04-27T16:04:53.397Z,14.30
2019-04-27T16:07:24.856Z,14.30
2019-04-27T16:09:58.515Z,14.20
2019-04-27T16:12:28.355Z,14.20
2019-04-27T16:14:58.257Z,14.20
2019-04-27T16:17:31.666Z,14.20
2019-04-27T16:20:00.249Z,14.10
2019-04-27T16:22:30.456Z,14.20
2019-04-27T16:25:03.652Z,14.10
2019-04-27T16:27:34.201Z,14.20
2019-04-27T16:30:09.697Z,14.10
2019-04-27T16:32:36.446Z,14.10
2019-04-27T16:35:07.899Z,14.10
2019-04-27T16:38:00.129Z,14.10
2019-04-27T16:40:31.543Z,14.10
2019-04-27T16:43:01.919Z,14.10
2019-04-27T16:45:32.423Z,14.00
2019-04-27T16:48:03.634Z,14.00
2019-04-27T16:50:34.126Z,14.00
2019-04-27T16:53:04.295Z,14.00
2019-04-27T16:55:35.348Z,14.00
2019-04-27T16:58:09.640Z,13.90
2019-04-27T17:00:38.740Z,13.90
2019-04-27T17:03:10.592Z,13.90
2019-04-27T17:05:40.857Z,13.80
2019-04-27T17:08:21.471Z,13.90
2019-04-27T17:10:42.966Z,13.90
2019-04-27T17:13:14.804Z,13.90
2019-04-27T17:16:08.523Z,13.90
2019-04-27T17:18:52.621Z,13.90
2019-04-27T17:21:23.283Z,13.80
2019-04-27T17:23:58.742Z,13.80
2019-04-27T17:26:26.681Z,13.80
2019-04-27T17:29:15.674Z,13.80
2019-04-27T17:31:43.116Z,13.80
2019-04-27T17:34:13.256Z,13.80
2019-04-27T17:36:43.494Z,13.80
2019-04-27T17:39:13.689Z,13.80
2019-04-27T17:41:49.140Z,13.70
2019-04-27T17:44:19.296Z,13.70
2019-04-27T17:46:51.061Z,13.70
2019-04-27T17:49:19.683Z,13.70
2019-04-27T17:51:49.860Z,13.70
2019-04-27T17:54:20.093Z,13.70
2019-04-27T17:56:52.442Z,13.80
2019-04-27T17:59:22.126Z,13.80
2019-04-27T18:01:54.061Z,13.70
2019-04-27T18:04:24.564Z,13.70
2019-04-27T18:06:55.529Z,13.70
2019-04-27T18:09:26.782Z,13.70
2019-04-27T18:11:58.409Z,13.80
2019-04-27T18:14:32.602Z,13.70
2019-04-27T18:17:03.599Z,13.70
2019-04-27T18:19:40.236Z,13.70
2019-04-27T18:22:10.104Z,13.70
2019-04-27T18:24:45.810Z,13.70
2019-04-27T18:27:43.815Z,13.70
2019-04-27T18:30:21.326Z,13.70
2019-04-27T18:32:51.578Z,13.70
2019-04-27T18:35:26.388Z,13.60
2019-04-27T18:37:58.383Z,13.70
2019-04-27T18:40:32.207Z,13.70
2019-04-27T18:42:57.568Z,13.70
2019-04-27T18:45:28.417Z,13.60
2019-04-27T18:48:06.593Z,13.60
2019-04-27T18:50:54.429Z,13.60
2019-04-27T18:53:28.983Z,13.60
2019-04-27T18:56:04.804Z,13.60
2019-04-27T18:58:32.164Z,13.60
2019-04-27T19:01:02.438Z,13.60
2019-04-27T19:03:32.829Z,13.60
2019-04-27T19:06:03.405Z,13.60
2019-04-27T19:08:34.087Z,13.60
2019-04-27T19:11:04.947Z,13.60
2019-04-27T19:13:35.949Z,13.60
2019-04-27T19:16:06.149Z,13.60
2019-04-27T19:18:37.812Z,13.50
2019-04-27T19:21:08.753Z,13.50
2019-04-27T19:23:40.215Z,13.50
2019-04-27T19:26:32.417Z,13.50
2019-04-27T19:29:10.533Z,13.50
2019-04-27T19:31:54.111Z,13.40
2019-04-27T19:34:24.296Z,13.40
2019-04-27T19:36:54.682Z,13.40
2019-04-27T19:39:25.614Z,13.40
2019-04-27T19:42:00.257Z,13.40
2019-04-27T19:44:29.183Z,13.40
2019-04-27T19:47:00.349Z,13.40
2019-04-27T19:49:31.721Z,13.40
2019-04-27T19:52:02.307Z,13.40
2019-04-27T19:54:32.614Z,13.40
2019-04-27T19:57:02.936Z,13.30
2019-04-27T19:59:38.895Z,13.40
2019-04-27T20:02:13.628Z,13.40
2019-04-27T20:04:48.215Z,13.30
2019-04-27T20:07:18.653Z,13.30
2019-04-27T20:09:58.460Z,13.40
2019-04-27T20:12:28.878Z,13.30
2019-04-27T20:14:59.201Z,13.40
2019-04-27T20:17:31.583Z,13.40
2019-04-27T20:20:03.028Z,13.40
2019-04-27T20:22:34.247Z,13.40
2019-04-27T20:25:04.718Z,13.30
2019-04-27T20:27:46.199Z,13.30
2019-04-27T20:30:08.637Z,13.20
2019-04-27T20:32:38.926Z,13.30
2019-04-27T20:35:09.576Z,13.30
2019-04-27T20:37:41.540Z,13.20
2019-04-27T20:40:12.257Z,13.30
2019-04-27T20:42:42.510Z,13.20
2019-04-27T20:45:13.334Z,13.20
2019-04-27T20:47:43.622Z,13.20
2019-04-27T20:50:14.103Z,13.30
2019-04-27T20:53:01.545Z,13.20
2019-04-27T20:55:32.312Z,13.20
2019-04-27T20:58:02.996Z,13.20
2019-04-27T21:00:33.418Z,13.20
2019-04-27T21:03:16.013Z,13.20
2019-04-27T21:06:04.142Z,13.20
2019-04-27T21:08:36.218Z,13.10
2019-04-27T21:11:06.432Z,13.20
2019-04-27T21:13:36.651Z,13.20
2019-04-27T21:16:06.800Z,13.10
2019-04-27T21:18:36.990Z,13.10
2019-04-27T21:21:07.097Z,13.10
2019-04-27T21:23:37.258Z,13.10
2019-04-27T21:26:07.466Z,13.10
2019-04-27T21:28:37.666Z,13.10
2019-04-27T21:31:07.945Z,13.10
2019-04-27T21:33:38.143Z,13.00
2019-04-27T21:36:08.230Z,13.10
2019-04-27T21:38:38.377Z,13.00
2019-04-27T21:41:08.566Z,13.00
2019-04-27T21:43:38.782Z,13.00
2019-04-27T21:46:08.978Z,12.90
2019-04-27T21:48:39.175Z,12.90
2019-04-27T21:51:09.493Z,12.80
2019-04-27T21:54:07.693Z,12.80
2019-04-27T21:56:37.938Z,12.90
2019-04-27T21:59:08.206Z,12.80
2019-04-27T22:01:38.453Z,12.80
2019-04-27T22:04:11.437Z,12.90
2019-04-27T22:06:42.374Z,12.80
2019-04-27T22:09:14.970Z,12.80
2019-04-27T22:11:45.417Z,12.70
2019-04-27T22:14:15.706Z,12.80
2019-04-27T22:16:45.868Z,12.80
2019-04-27T22:19:16.015Z,12.80
2019-04-27T22:21:46.287Z,12.80
2019-04-27T22:24:33.538Z,12.80
2019-04-27T22:27:04.183Z,12.80
2019-04-27T22:29:34.774Z,12.80
2019-04-27T22:32:05.686Z,12.80
2019-04-27T22:34:36.288Z,12.80
2019-04-27T22:37:06.465Z,12.80
2019-04-27T22:39:43.070Z,12.80
2019-04-27T22:42:31.399Z,12.70
2019-04-27T22:45:11.630Z,12.70
2019-04-27T22:47:42.071Z,12.70
2019-04-27T22:50:13.833Z,12.70
2019-04-27T22:52:44.299Z,12.70
2019-04-27T22:55:14.443Z,12.70
2019-04-27T22:57:51.619Z,12.70
2019-04-27T23:00:32.988Z,12.60
2019-04-27T23:03:05.177Z,12.60
2019-04-27T23:05:35.318Z,12.60
2019-04-27T23:08:05.638Z,12.50
2019-04-27T23:10:35.929Z,12.50
2019-04-27T23:13:05.990Z,12.50
2019-04-27T23:15:41.447Z,12.50
2019-04-27T23:18:11.575Z,12.50
2019-04-27T23:20:42.575Z,12.50
2019-04-27T23:23:12.882Z,12.50
2019-04-27T23:25:43.116Z,12.50
2019-04-27T23:28:13.322Z,12.50
2019-04-27T23:30:50.396Z,12.40
2019-04-27T23:33:21.124Z,12.40
2019-04-27T23:35:51.719Z,12.40
2019-04-27T23:38:21.982Z,12.40
2019-04-27T23:40:52.137Z,12.40
2019-04-27T23:43:22.433Z,12.40
2019-04-27T23:45:52.784Z,12.40
2019-04-27T23:48:24.993Z,12.40
2019-04-27T23:51:00.477Z,12.40
2019-04-27T23:53:32.574Z,12.40
2019-04-27T23:56:02.685Z,12.40
2019-04-27T23:58:33.150Z,12.40
